sensor_id;sensor_type;location;lat;lon;timestamp;temperature;humidity
71206;SHT31;58935;54.498;18.544;2023-06-10T00:01:49;16.49;72.04
71206;SHT31;58935;54.498;18.544;2023-06-10T00:04:17;16.46;72.23
71206;SHT31;58935;54.498;18.544;2023-06-10T00:06:44;16.44;72.36
71206;SHT31;58935;54.498;18.544;2023-06-10T00:09:14;16.42;72.38
71206;SHT31;58935;54.498;18.544;2023-06-10T00:11:40;16.41;72.32
71206;SHT31;58935;54.498;18.544;2023-06-10T00:14:09;16.40;72.19
71206;SHT31;58935;54.498;18.544;2023-06-10T00:16:35;16.39;72.09
71206;SHT31;58935;54.498;18.544;2023-06-10T00:19:01;16.37;72.20
71206;SHT31;58935;54.498;18.544;2023-06-10T00:21:29;16.35;72.30
71206;SHT31;58935;54.498;18.544;2023-06-10T00:24:03;16.33;72.31
71206;SHT31;58935;54.498;18.544;2023-06-10T00:26:30;16.32;72.38
71206;SHT31;58935;54.498;18.544;2023-06-10T00:28:57;16.31;72.43
71206;SHT31;58935;54.498;18.544;2023-06-10T00:31:23;16.29;72.36
71206;SHT31;58935;54.498;18.544;2023-06-10T00:33:48;16.28;72.26
71206;SHT31;58935;54.498;18.544;2023-06-10T00:36:14;16.27;72.20
71206;SHT31;58935;54.498;18.544;2023-06-10T00:38:39;16.26;72.25
71206;SHT31;58935;54.498;18.544;2023-06-10T00:41:06;16.24;72.38
71206;SHT31;58935;54.498;18.544;2023-06-10T00:43:32;16.22;72.47
71206;SHT31;58935;54.498;18.544;2023-06-10T00:45:58;16.20;72.49
71206;SHT31;58935;54.498;18.544;2023-06-10T00:48:24;16.17;72.47
71206;SHT31;58935;54.498;18.544;2023-06-10T00:50:51;16.16;72.49
71206;SHT31;58935;54.498;18.544;2023-06-10T00:53:17;16.14;72.40
71206;SHT31;58935;54.498;18.544;2023-06-10T00:55:44;16.11;72.54
71206;SHT31;58935;54.498;18.544;2023-06-10T00:58:10;16.09;72.56
71206;SHT31;58935;54.498;18.544;2023-06-10T01:00:36;16.06;72.54
71206;SHT31;58935;54.498;18.544;2023-06-10T01:03:04;16.05;72.47
71206;SHT31;58935;54.498;18.544;2023-06-10T01:05:33;16.02;72.45
71206;SHT31;58935;54.498;18.544;2023-06-10T01:08:07;16.01;72.48
71206;SHT31;58935;54.498;18.544;2023-06-10T01:10:51;15.98;72.35
71206;SHT31;58935;54.498;18.544;2023-06-10T01:13:22;15.96;72.50
71206;SHT31;58935;54.498;18.544;2023-06-10T01:15:54;15.93;72.60
71206;SHT31;58935;54.498;18.544;2023-06-10T01:18:21;15.91;72.33
71206;SHT31;58935;54.498;18.544;2023-06-10T01:20:55;15.88;72.27
71206;SHT31;58935;54.498;18.544;2023-06-10T01:23:21;15.87;72.38
71206;SHT31;58935;54.498;18.544;2023-06-10T01:25:49;15.83;71.93
71206;SHT31;58935;54.498;18.544;2023-06-10T01:28:33;15.81;72.00
71206;SHT31;58935;54.498;18.544;2023-06-10T01:31:25;15.79;71.84
71206;SHT31;58935;54.498;18.544;2023-06-10T01:34:02;15.78;71.84
71206;SHT31;58935;54.498;18.544;2023-06-10T01:36:33;15.76;72.00
71206;SHT31;58935;54.498;18.544;2023-06-10T01:39:03;15.72;71.89
71206;SHT31;58935;54.498;18.544;2023-06-10T01:41:31;15.70;71.73
71206;SHT31;58935;54.498;18.544;2023-06-10T01:43:58;15.69;71.80
71206;SHT31;58935;54.498;18.544;2023-06-10T01:46:23;15.68;71.62
71206;SHT31;58935;54.498;18.544;2023-06-10T01:48:49;15.66;71.76
71206;SHT31;58935;54.498;18.544;2023-06-10T01:51:14;15.65;71.60
71206;SHT31;58935;54.498;18.544;2023-06-10T01:53:43;15.64;71.61
71206;SHT31;58935;54.498;18.544;2023-06-10T01:56:08;15.62;71.81
71206;SHT31;58935;54.498;18.544;2023-06-10T01:58:42;15.60;71.72
71206;SHT31;58935;54.498;18.544;2023-06-10T02:01:08;15.60;71.45
71206;SHT31;58935;54.498;18.544;2023-06-10T02:03:33;15.58;71.57
71206;SHT31;58935;54.498;18.544;2023-06-10T02:05:59;15.57;71.67
71206;SHT31;58935;54.498;18.544;2023-06-10T02:08:24;15.56;71.71
71206;SHT31;58935;54.498;18.544;2023-06-10T02:10:49;15.54;71.77
71206;SHT31;58935;54.498;18.544;2023-06-10T02:13:15;15.53;71.77
71206;SHT31;58935;54.498;18.544;2023-06-10T02:15:43;15.52;71.67
71206;SHT31;58935;54.498;18.544;2023-06-10T02:18:08;15.50;71.76
71206;SHT31;58935;54.498;18.544;2023-06-10T02:20:35;15.49;71.64
71206;SHT31;58935;54.498;18.544;2023-06-10T02:23:01;15.49;71.46
71206;SHT31;58935;54.498;18.544;2023-06-10T02:25:26;15.48;71.40
71206;SHT31;58935;54.498;18.544;2023-06-10T02:27:51;15.48;71.50
71206;SHT31;58935;54.498;18.544;2023-06-10T02:30:17;15.49;71.66
71206;SHT31;58935;54.498;18.544;2023-06-10T02:32:42;15.48;71.83
71206;SHT31;58935;54.498;18.544;2023-06-10T02:35:12;15.48;71.79
71206;SHT31;58935;54.498;18.544;2023-06-10T02:37:37;15.47;71.42
71206;SHT31;58935;54.498;18.544;2023-06-10T02:40:03;15.46;71.42
71206;SHT31;58935;54.498;18.544;2023-06-10T02:42:29;15.46;71.64
71206;SHT31;58935;54.498;18.544;2023-06-10T02:44:55;15.47;71.80
71206;SHT31;58935;54.498;18.544;2023-06-10T02:47:20;15.48;71.71
71206;SHT31;58935;54.498;18.544;2023-06-10T02:49:46;15.48;71.53
71206;SHT31;58935;54.498;18.544;2023-06-10T02:52:11;15.48;71.47
71206;SHT31;58935;54.498;18.544;2023-06-10T02:54:37;15.49;71.40
71206;SHT31;58935;54.498;18.544;2023-06-10T02:57:03;15.50;71.32
71206;SHT31;58935;54.498;18.544;2023-06-10T02:59:28;15.50;71.32
71206;SHT31;58935;54.498;18.544;2023-06-10T03:01:54;15.51;71.52
71206;SHT31;58935;54.498;18.544;2023-06-10T03:04:22;15.54;71.62
71206;SHT31;58935;54.498;18.544;2023-06-10T03:06:48;15.58;71.56
71206;SHT31;58935;54.498;18.544;2023-06-10T03:09:14;15.69;71.17
71206;SHT31;58935;54.498;18.544;2023-06-10T03:11:39;15.81;71.22
71206;SHT31;58935;54.498;18.544;2023-06-10T03:14:05;16.18;70.86
71206;SHT31;58935;54.498;18.544;2023-06-10T03:16:31;16.69;69.19
71206;SHT31;58935;54.498;18.544;2023-06-10T03:18:56;16.90;68.36
71206;SHT31;58935;54.498;18.544;2023-06-10T03:21:22;16.92;67.94
71206;SHT31;58935;54.498;18.544;2023-06-10T03:23:48;16.88;67.76
71206;SHT31;58935;54.498;18.544;2023-06-10T03:26:13;16.86;67.83
71206;SHT31;58935;54.498;18.544;2023-06-10T03:28:40;16.89;67.73
71206;SHT31;58935;54.498;18.544;2023-06-10T03:31:06;16.90;67.22
71206;SHT31;58935;54.498;18.544;2023-06-10T03:33:32;16.86;67.26
71206;SHT31;58935;54.498;18.544;2023-06-10T03:35:58;16.83;67.41
71206;SHT31;58935;54.498;18.544;2023-06-10T03:38:23;16.81;67.24
71206;SHT31;58935;54.498;18.544;2023-06-10T03:40:49;16.78;67.31
71206;SHT31;58935;54.498;18.544;2023-06-10T03:43:15;16.74;67.54
71206;SHT31;58935;54.498;18.544;2023-06-10T03:45:40;16.73;67.77
71206;SHT31;58935;54.498;18.544;2023-06-10T03:48:06;16.69;67.60
71206;SHT31;58935;54.498;18.544;2023-06-10T03:50:33;16.65;67.58
71206;SHT31;58935;54.498;18.544;2023-06-10T03:53:01;16.60;67.75
71206;SHT31;58935;54.498;18.544;2023-06-10T03:55:27;16.58;67.97
71206;SHT31;58935;54.498;18.544;2023-06-10T03:57:53;16.56;68.07
71206;SHT31;58935;54.498;18.544;2023-06-10T04:00:18;16.54;68.16
71206;SHT31;58935;54.498;18.544;2023-06-10T04:02:46;16.53;67.82
71206;SHT31;58935;54.498;18.544;2023-06-10T04:05:12;16.52;67.69
71206;SHT31;58935;54.498;18.544;2023-06-10T04:07:39;16.50;67.49
71206;SHT31;58935;54.498;18.544;2023-06-10T04:10:07;16.50;67.57
71206;SHT31;58935;54.498;18.544;2023-06-10T04:12:35;16.50;67.80
71206;SHT31;58935;54.498;18.544;2023-06-10T04:15:01;16.50;67.56
71206;SHT31;58935;54.498;18.544;2023-06-10T04:17:28;16.52;67.70
71206;SHT31;58935;54.498;18.544;2023-06-10T04:19:54;16.51;67.81
71206;SHT31;58935;54.498;18.544;2023-06-10T04:22:21;16.54;67.76
71206;SHT31;58935;54.498;18.544;2023-06-10T04:24:47;16.57;67.04
71206;SHT31;58935;54.498;18.544;2023-06-10T04:27:13;16.60;66.74
71206;SHT31;58935;54.498;18.544;2023-06-10T04:29:39;16.64;66.70
71206;SHT31;58935;54.498;18.544;2023-06-10T04:32:05;16.68;66.41
71206;SHT31;58935;54.498;18.544;2023-06-10T04:34:33;16.73;66.38
71206;SHT31;58935;54.498;18.544;2023-06-10T04:36:59;16.75;65.88
71206;SHT31;58935;54.498;18.544;2023-06-10T04:39:25;16.75;65.78
71206;SHT31;58935;54.498;18.544;2023-06-10T04:41:51;16.75;65.84
71206;SHT31;58935;54.498;18.544;2023-06-10T04:44:17;16.75;66.10
71206;SHT31;58935;54.498;18.544;2023-06-10T04:46:45;16.75;65.98
71206;SHT31;58935;54.498;18.544;2023-06-10T04:49:13;16.77;65.79
71206;SHT31;58935;54.498;18.544;2023-06-10T04:51:40;16.78;65.86
71206;SHT31;58935;54.498;18.544;2023-06-10T04:54:07;16.79;65.72
71206;SHT31;58935;54.498;18.544;2023-06-10T04:56:32;16.80;65.49
71206;SHT31;58935;54.498;18.544;2023-06-10T04:59:00;16.80;65.47
71206;SHT31;58935;54.498;18.544;2023-06-10T05:01:25;16.83;65.74
71206;SHT31;58935;54.498;18.544;2023-06-10T05:04:02;16.85;65.77
71206;SHT31;58935;54.498;18.544;2023-06-10T05:06:29;16.89;65.49
71206;SHT31;58935;54.498;18.544;2023-06-10T05:08:57;16.94;65.35
71206;SHT31;58935;54.498;18.544;2023-06-10T05:11:22;16.97;65.08
71206;SHT31;58935;54.498;18.544;2023-06-10T05:13:48;16.97;65.09
71206;SHT31;58935;54.498;18.544;2023-06-10T05:16:14;16.98;64.90
71206;SHT31;58935;54.498;18.544;2023-06-10T05:18:40;17.01;64.89
71206;SHT31;58935;54.498;18.544;2023-06-10T05:21:06;17.01;64.81
71206;SHT31;58935;54.498;18.544;2023-06-10T05:23:32;17.03;64.91
71206;SHT31;58935;54.498;18.544;2023-06-10T05:25:58;17.05;65.06
71206;SHT31;58935;54.498;18.544;2023-06-10T05:28:24;17.07;64.89
71206;SHT31;58935;54.498;18.544;2023-06-10T05:30:50;17.08;64.42
71206;SHT31;58935;54.498;18.544;2023-06-10T05:33:19;17.09;64.03
71206;SHT31;58935;54.498;18.544;2023-06-10T05:35:44;17.06;63.96
71206;SHT31;58935;54.498;18.544;2023-06-10T05:38:10;17.07;64.21
71206;SHT31;58935;54.498;18.544;2023-06-10T05:40:36;17.10;63.69
71206;SHT31;58935;54.498;18.544;2023-06-10T05:43:01;17.14;63.75
71206;SHT31;58935;54.498;18.544;2023-06-10T05:45:27;17.18;63.18
71206;SHT31;58935;54.498;18.544;2023-06-10T05:47:52;17.17;62.32
71206;SHT31;58935;54.498;18.544;2023-06-10T05:50:18;17.16;62.67
71206;SHT31;58935;54.498;18.544;2023-06-10T05:52:43;17.15;61.88
71206;SHT31;58935;54.498;18.544;2023-06-10T05:55:09;17.19;62.15
71206;SHT31;58935;54.498;18.544;2023-06-10T05:57:35;17.21;61.93
71206;SHT31;58935;54.498;18.544;2023-06-10T06:00:01;17.18;61.83
71206;SHT31;58935;54.498;18.544;2023-06-10T06:02:26;17.11;61.85
71206;SHT31;58935;54.498;18.544;2023-06-10T06:04:54;17.10;61.92
71206;SHT31;58935;54.498;18.544;2023-06-10T06:07:19;17.13;61.91
71206;SHT31;58935;54.498;18.544;2023-06-10T06:09:46;17.20;61.91
71206;SHT31;58935;54.498;18.544;2023-06-10T06:12:12;17.24;61.31
71206;SHT31;58935;54.498;18.544;2023-06-10T06:14:40;17.22;61.22
71206;SHT31;58935;54.498;18.544;2023-06-10T06:17:05;17.21;61.42
71206;SHT31;58935;54.498;18.544;2023-06-10T06:19:31;17.19;60.85
71206;SHT31;58935;54.498;18.544;2023-06-10T06:21:57;17.15;60.57
71206;SHT31;58935;54.498;18.544;2023-06-10T06:24:23;17.16;60.87
71206;SHT31;58935;54.498;18.544;2023-06-10T06:26:48;17.15;60.60
71206;SHT31;58935;54.498;18.544;2023-06-10T06:29:14;17.13;61.00
71206;SHT31;58935;54.498;18.544;2023-06-10T06:31:40;17.14;60.70
71206;SHT31;58935;54.498;18.544;2023-06-10T06:34:05;17.15;60.82
71206;SHT31;58935;54.498;18.544;2023-06-10T06:36:31;17.18;60.93
71206;SHT31;58935;54.498;18.544;2023-06-10T06:38:56;17.20;60.35
71206;SHT31;58935;54.498;18.544;2023-06-10T06:41:23;17.20;60.69
71206;SHT31;58935;54.498;18.544;2023-06-10T06:43:54;17.25;60.53
71206;SHT31;58935;54.498;18.544;2023-06-10T06:46:20;17.27;59.19
71206;SHT31;58935;54.498;18.544;2023-06-10T06:48:47;17.23;59.76
71206;SHT31;58935;54.498;18.544;2023-06-10T06:51:14;17.24;60.12
71206;SHT31;58935;54.498;18.544;2023-06-10T06:53:40;17.24;60.52
71206;SHT31;58935;54.498;18.544;2023-06-10T06:56:11;17.22;59.84
71206;SHT31;58935;54.498;18.544;2023-06-10T06:58:37;17.15;60.18
71206;SHT31;58935;54.498;18.544;2023-06-10T07:01:02;17.13;59.98
71206;SHT31;58935;54.498;18.544;2023-06-10T07:03:28;17.16;60.61
71206;SHT31;58935;54.498;18.544;2023-06-10T07:05:53;17.21;60.13
71206;SHT31;58935;54.498;18.544;2023-06-10T07:08:19;17.27;60.08
71206;SHT31;58935;54.498;18.544;2023-06-10T07:10:44;17.34;60.19
71206;SHT31;58935;54.498;18.544;2023-06-10T07:13:10;17.37;59.79
71206;SHT31;58935;54.498;18.544;2023-06-10T07:15:35;17.39;59.50
71206;SHT31;58935;54.498;18.544;2023-06-10T07:18:03;17.40;59.62
71206;SHT31;58935;54.498;18.544;2023-06-10T07:20:29;17.42;60.00
71206;SHT31;58935;54.498;18.544;2023-06-10T07:22:54;17.43;59.43
71206;SHT31;58935;54.498;18.544;2023-06-10T07:25:20;17.41;58.89
71206;SHT31;58935;54.498;18.544;2023-06-10T07:27:48;17.39;59.45
71206;SHT31;58935;54.498;18.544;2023-06-10T07:30:14;17.39;59.61
71206;SHT31;58935;54.498;18.544;2023-06-10T07:32:40;17.43;59.79
71206;SHT31;58935;54.498;18.544;2023-06-10T07:35:07;17.51;59.86
71206;SHT31;58935;54.498;18.544;2023-06-10T07:37:36;17.57;59.52
71206;SHT31;58935;54.498;18.544;2023-06-10T07:40:02;17.59;59.85
71206;SHT31;58935;54.498;18.544;2023-06-10T07:42:28;17.55;60.00
71206;SHT31;58935;54.498;18.544;2023-06-10T07:44:54;17.54;59.98
71206;SHT31;58935;54.498;18.544;2023-06-10T07:47:20;17.56;60.03
71206;SHT31;58935;54.498;18.544;2023-06-10T07:49:48;17.60;60.21
71206;SHT31;58935;54.498;18.544;2023-06-10T07:52:13;17.63;60.02
71206;SHT31;58935;54.498;18.544;2023-06-10T07:54:39;17.63;59.94
71206;SHT31;58935;54.498;18.544;2023-06-10T07:57:06;17.61;59.69
71206;SHT31;58935;54.498;18.544;2023-06-10T07:59:32;17.60;59.65
71206;SHT31;58935;54.498;18.544;2023-06-10T08:01:58;17.58;59.69
71206;SHT31;58935;54.498;18.544;2023-06-10T08:04:24;17.60;59.92
71206;SHT31;58935;54.498;18.544;2023-06-10T08:06:49;17.62;60.11
71206;SHT31;58935;54.498;18.544;2023-06-10T08:09:15;17.63;59.86
71206;SHT31;58935;54.498;18.544;2023-06-10T08:11:41;17.65;59.75
71206;SHT31;58935;54.498;18.544;2023-06-10T08:14:07;17.68;59.96
71206;SHT31;58935;54.498;18.544;2023-06-10T08:16:32;17.68;59.75
71206;SHT31;58935;54.498;18.544;2023-06-10T08:18:58;17.65;59.49
71206;SHT31;58935;54.498;18.544;2023-06-10T08:21:23;17.64;60.56
71206;SHT31;58935;54.498;18.544;2023-06-10T08:23:52;17.65;62.03
71206;SHT31;58935;54.498;18.544;2023-06-10T08:26:19;17.59;63.13
71206;SHT31;58935;54.498;18.544;2023-06-10T08:28:45;17.50;62.97
71206;SHT31;58935;54.498;18.544;2023-06-10T08:31:10;17.48;62.14
71206;SHT31;58935;54.498;18.544;2023-06-10T08:33:36;17.43;62.48
71206;SHT31;58935;54.498;18.544;2023-06-10T08:36:01;17.40;62.40
71206;SHT31;58935;54.498;18.544;2023-06-10T08:38:27;17.40;63.51
71206;SHT31;58935;54.498;18.544;2023-06-10T08:40:54;17.43;64.05
71206;SHT31;58935;54.498;18.544;2023-06-10T08:43:28;17.44;63.25
71206;SHT31;58935;54.498;18.544;2023-06-10T08:46:02;17.42;63.33
71206;SHT31;58935;54.498;18.544;2023-06-10T08:48:29;17.44;63.56
71206;SHT31;58935;54.498;18.544;2023-06-10T08:50:59;17.46;63.65
71206;SHT31;58935;54.498;18.544;2023-06-10T08:53:29;17.49;63.48
71206;SHT31;58935;54.498;18.544;2023-06-10T08:56:01;17.46;63.31
71206;SHT31;58935;54.498;18.544;2023-06-10T08:58:32;17.47;63.20
71206;SHT31;58935;54.498;18.544;2023-06-10T09:01:00;17.44;62.03
71206;SHT31;58935;54.498;18.544;2023-06-10T09:03:26;17.42;62.07
71206;SHT31;58935;54.498;18.544;2023-06-10T09:05:53;17.40;62.15
71206;SHT31;58935;54.498;18.544;2023-06-10T09:08:22;17.38;61.98
71206;SHT31;58935;54.498;18.544;2023-06-10T09:10:47;17.39;62.81
71206;SHT31;58935;54.498;18.544;2023-06-10T09:13:13;17.41;63.71
71206;SHT31;58935;54.498;18.544;2023-06-10T09:15:40;17.45;63.77
71206;SHT31;58935;54.498;18.544;2023-06-10T09:18:09;17.54;64.24
71206;SHT31;58935;54.498;18.544;2023-06-10T09:20:35;17.65;63.67
71206;SHT31;58935;54.498;18.544;2023-06-10T09:23:00;17.73;63.56
71206;SHT31;58935;54.498;18.544;2023-06-10T09:27:59;17.92;62.88
71206;SHT31;58935;54.498;18.544;2023-06-10T09:30:26;17.93;62.67
71206;SHT31;58935;54.498;18.544;2023-06-10T09:32:56;17.89;61.95
71206;SHT31;58935;54.498;18.544;2023-06-10T09:35:28;17.79;62.45
71206;SHT31;58935;54.498;18.544;2023-06-10T09:37:56;17.75;62.70
71206;SHT31;58935;54.498;18.544;2023-06-10T09:40:24;17.71;63.00
71206;SHT31;58935;54.498;18.544;2023-06-10T09:42:53;17.66;62.70
71206;SHT31;58935;54.498;18.544;2023-06-10T09:45:22;17.56;62.60
71206;SHT31;58935;54.498;18.544;2023-06-10T09:50:18;17.50;63.06
71206;SHT31;58935;54.498;18.544;2023-06-10T09:52:45;17.51;63.82
71206;SHT31;58935;54.498;18.544;2023-06-10T09:55:13;17.60;63.23
71206;SHT31;58935;54.498;18.544;2023-06-10T09:57:39;17.56;63.11
71206;SHT31;58935;54.498;18.544;2023-06-10T10:00:07;17.57;63.66
71206;SHT31;58935;54.498;18.544;2023-06-10T10:05:09;17.61;63.19
71206;SHT31;58935;54.498;18.544;2023-06-10T10:07:34;17.60;63.50
71206;SHT31;58935;54.498;18.544;2023-06-10T10:10:00;17.64;63.24
71206;SHT31;58935;54.498;18.544;2023-06-10T10:12:26;17.67;62.75
71206;SHT31;58935;54.498;18.544;2023-06-10T10:14:55;17.66;63.38
71206;SHT31;58935;54.498;18.544;2023-06-10T10:17:21;17.72;63.28
71206;SHT31;58935;54.498;18.544;2023-06-10T10:19:53;17.75;63.24
71206;SHT31;58935;54.498;18.544;2023-06-10T10:22:26;17.80;63.14
71206;SHT31;58935;54.498;18.544;2023-06-10T10:24:57;17.77;62.47
71206;SHT31;58935;54.498;18.544;2023-06-10T10:30:01;17.72;62.70
71206;SHT31;58935;54.498;18.544;2023-06-10T10:32:35;17.75;62.82
71206;SHT31;58935;54.498;18.544;2023-06-10T10:35:09;17.74;62.85
71206;SHT31;58935;54.498;18.544;2023-06-10T10:37:43;17.70;62.72
71206;SHT31;58935;54.498;18.544;2023-06-10T10:40:09;17.68;62.41
71206;SHT31;58935;54.498;18.544;2023-06-10T10:42:36;17.69;62.49
71206;SHT31;58935;54.498;18.544;2023-06-10T10:45:05;17.70;61.80
71206;SHT31;58935;54.498;18.544;2023-06-10T10:47:33;17.69;61.80
71206;SHT31;58935;54.498;18.544;2023-06-10T10:50:03;17.68;62.19
71206;SHT31;58935;54.498;18.544;2023-06-10T10:52:46;17.74;62.32
71206;SHT31;58935;54.498;18.544;2023-06-10T10:55:23;17.82;61.97
71206;SHT31;58935;54.498;18.544;2023-06-10T11:00:27;17.92;60.90
71206;SHT31;58935;54.498;18.544;2023-06-10T11:03:03;17.98;61.37
71206;SHT31;58935;54.498;18.544;2023-06-10T11:08:03;18.10;60.79
71206;SHT31;58935;54.498;18.544;2023-06-10T11:15:37;18.23;60.72
71206;SHT31;58935;54.498;18.544;2023-06-10T11:18:15;18.30;60.92
71206;SHT31;58935;54.498;18.544;2023-06-10T11:20:52;18.31;60.31
71206;SHT31;58935;54.498;18.544;2023-06-10T11:28:43;18.36;59.64
71206;SHT31;58935;54.498;18.544;2023-06-10T11:31:30;18.35;59.36
71206;SHT31;58935;54.498;18.544;2023-06-10T11:34:07;18.42;59.75
71206;SHT31;58935;54.498;18.544;2023-06-10T11:36:37;18.43;58.51
71206;SHT31;58935;54.498;18.544;2023-06-10T11:39:06;18.40;59.55
71206;SHT31;58935;54.498;18.544;2023-06-10T11:41:33;18.42;59.58
71206;SHT31;58935;54.498;18.544;2023-06-10T11:44:03;18.43;59.55
71206;SHT31;58935;54.498;18.544;2023-06-10T11:46:34;18.46;59.20
71206;SHT31;58935;54.498;18.544;2023-06-10T11:49:00;18.50;59.37
71206;SHT31;58935;54.498;18.544;2023-06-10T11:51:28;18.53;59.14
71206;SHT31;58935;54.498;18.544;2023-06-10T11:53:58;18.56;59.02
71206;SHT31;58935;54.498;18.544;2023-06-10T11:56:25;18.54;57.93
71206;SHT31;58935;54.498;18.544;2023-06-10T11:58:53;18.57;58.27
71206;SHT31;58935;54.498;18.544;2023-06-10T12:01:24;18.59;58.39
71206;SHT31;58935;54.498;18.544;2023-06-10T12:06:25;18.64;58.39
71206;SHT31;58935;54.498;18.544;2023-06-10T12:08:53;18.78;58.58
71206;SHT31;58935;54.498;18.544;2023-06-10T12:11:19;18.90;58.49
71206;SHT31;58935;54.498;18.544;2023-06-10T12:13:47;18.97;58.24
71206;SHT31;58935;54.498;18.544;2023-06-10T12:16:14;19.01;58.33
71206;SHT31;58935;54.498;18.544;2023-06-10T12:18:42;19.07;58.17
71206;SHT31;58935;54.498;18.544;2023-06-10T12:23:59;19.10;58.88
71206;SHT31;58935;54.498;18.544;2023-06-10T12:26:35;19.12;58.50
71206;SHT31;58935;54.498;18.544;2023-06-10T12:29:12;19.12;58.15
71206;SHT31;58935;54.498;18.544;2023-06-10T12:37:00;19.03;58.60
71206;SHT31;58935;54.498;18.544;2023-06-10T12:39:29;19.04;57.91
71206;SHT31;58935;54.498;18.544;2023-06-10T12:41:56;19.04;57.92
71206;SHT31;58935;54.498;18.544;2023-06-10T12:46:59;19.09;57.23
71206;SHT31;58935;54.498;18.544;2023-06-10T12:49:26;19.13;57.61
71206;SHT31;58935;54.498;18.544;2023-06-10T12:51:52;19.17;57.88
71206;SHT31;58935;54.498;18.544;2023-06-10T12:54:19;19.22;57.97
71206;SHT31;58935;54.498;18.544;2023-06-10T12:56:47;19.27;57.58
71206;SHT31;58935;54.498;18.544;2023-06-10T12:59:12;19.21;57.75
71206;SHT31;58935;54.498;18.544;2023-06-10T13:01:38;19.08;57.13
71206;SHT31;58935;54.498;18.544;2023-06-10T13:04:04;19.00;57.90
71206;SHT31;58935;54.498;18.544;2023-06-10T13:06:32;18.95;57.55
71206;SHT31;58935;54.498;18.544;2023-06-10T13:09:01;18.84;56.76
71206;SHT31;58935;54.498;18.544;2023-06-10T13:11:28;18.72;57.44
71206;SHT31;58935;54.498;18.544;2023-06-10T13:13:53;18.67;58.24
71206;SHT31;58935;54.498;18.544;2023-06-10T13:16:19;18.67;59.04
71206;SHT31;58935;54.498;18.544;2023-06-10T13:18:45;18.70;58.38
71206;SHT31;58935;54.498;18.544;2023-06-10T13:21:11;18.74;57.96
71206;SHT31;58935;54.498;18.544;2023-06-10T13:23:36;18.73;58.00
71206;SHT31;58935;54.498;18.544;2023-06-10T13:26:02;18.74;57.80
71206;SHT31;58935;54.498;18.544;2023-06-10T13:28:28;18.79;57.35
71206;SHT31;58935;54.498;18.544;2023-06-10T13:30:53;18.77;57.05
71206;SHT31;58935;54.498;18.544;2023-06-10T13:33:19;18.75;57.30
71206;SHT31;58935;54.498;18.544;2023-06-10T13:35:44;18.76;57.00
71206;SHT31;58935;54.498;18.544;2023-06-10T13:38:09;18.78;57.39
71206;SHT31;58935;54.498;18.544;2023-06-10T13:43:23;18.82;57.80
71206;SHT31;58935;54.498;18.544;2023-06-10T13:45:48;18.83;58.03
71206;SHT31;58935;54.498;18.544;2023-06-10T13:48:14;18.80;57.49
71206;SHT31;58935;54.498;18.544;2023-06-10T13:50:39;18.77;57.21
71206;SHT31;58935;54.498;18.544;2023-06-10T13:53:05;18.77;57.32
71206;SHT31;58935;54.498;18.544;2023-06-10T13:55:32;18.74;57.23
71206;SHT31;58935;54.498;18.544;2023-06-10T13:57:58;18.70;57.34
71206;SHT31;58935;54.498;18.544;2023-06-10T14:00:23;18.71;57.79
71206;SHT31;58935;54.498;18.544;2023-06-10T14:02:51;18.82;57.62
71206;SHT31;58935;54.498;18.544;2023-06-10T14:05:16;18.94;56.77
71206;SHT31;58935;54.498;18.544;2023-06-10T14:07:41;18.94;56.43
71206;SHT31;58935;54.498;18.544;2023-06-10T14:10:07;18.95;56.70
71206;SHT31;58935;54.498;18.544;2023-06-10T14:12:34;19.01;56.56
71206;SHT31;58935;54.498;18.544;2023-06-10T14:15:00;19.02;55.82
71206;SHT31;58935;54.498;18.544;2023-06-10T14:17:26;19.00;56.43
71206;SHT31;58935;54.498;18.544;2023-06-10T14:19:51;19.08;56.31
71206;SHT31;58935;54.498;18.544;2023-06-10T14:22:16;19.16;55.37
71206;SHT31;58935;54.498;18.544;2023-06-10T14:24:42;19.11;55.10
71206;SHT31;58935;54.498;18.544;2023-06-10T14:27:07;19.08;55.76
71206;SHT31;58935;54.498;18.544;2023-06-10T14:29:33;19.04;55.13
71206;SHT31;58935;54.498;18.544;2023-06-10T14:31:59;19.09;55.07
71206;SHT31;58935;54.498;18.544;2023-06-10T14:34:25;19.11;54.45
71206;SHT31;58935;54.498;18.544;2023-06-10T14:36:54;19.15;54.68
71206;SHT31;58935;54.498;18.544;2023-06-10T14:39:20;19.20;54.41
71206;SHT31;58935;54.498;18.544;2023-06-10T14:41:45;19.23;53.70
71206;SHT31;58935;54.498;18.544;2023-06-10T14:44:11;19.29;54.10
71206;SHT31;58935;54.498;18.544;2023-06-10T14:46:36;19.27;53.53
71206;SHT31;58935;54.498;18.544;2023-06-10T14:49:02;19.32;54.49
71206;SHT31;58935;54.498;18.544;2023-06-10T14:51:27;19.38;54.49
71206;SHT31;58935;54.498;18.544;2023-06-10T14:53:53;19.50;54.90
71206;SHT31;58935;54.498;18.544;2023-06-10T14:56:19;19.68;54.16
71206;SHT31;58935;54.498;18.544;2023-06-10T14:58:44;19.81;52.73
71206;SHT31;58935;54.498;18.544;2023-06-10T15:01:10;19.90;52.66
71206;SHT31;58935;54.498;18.544;2023-06-10T15:03:35;20.00;52.50
71206;SHT31;58935;54.498;18.544;2023-06-10T15:06:01;20.11;51.90
71206;SHT31;58935;54.498;18.544;2023-06-10T15:08:26;20.18;51.46
71206;SHT31;58935;54.498;18.544;2023-06-10T15:10:53;20.22;51.02
71206;SHT31;58935;54.498;18.544;2023-06-10T15:13:19;20.29;51.02
71206;SHT31;58935;54.498;18.544;2023-06-10T15:15:45;20.33;50.24
71206;SHT31;58935;54.498;18.544;2023-06-10T15:18:10;20.35;50.51
71206;SHT31;58935;54.498;18.544;2023-06-10T15:20:36;20.42;51.02
71206;SHT31;58935;54.498;18.544;2023-06-10T15:23:01;20.46;50.95
71206;SHT31;58935;54.498;18.544;2023-06-10T15:25:27;20.42;50.97
71206;SHT31;58935;54.498;18.544;2023-06-10T15:27:52;20.32;51.60
71206;SHT31;58935;54.498;18.544;2023-06-10T15:30:18;20.26;51.60
71206;SHT31;58935;54.498;18.544;2023-06-10T15:32:43;20.24;52.23
71206;SHT31;58935;54.498;18.544;2023-06-10T15:35:09;20.27;52.33
71206;SHT31;58935;54.498;18.544;2023-06-10T15:37:34;20.31;52.38
71206;SHT31;58935;54.498;18.544;2023-06-10T15:40:00;20.32;52.44
71206;SHT31;58935;54.498;18.544;2023-06-10T15:42:26;20.29;52.45
71206;SHT31;58935;54.498;18.544;2023-06-10T15:44:51;20.20;52.95
71206;SHT31;58935;54.498;18.544;2023-06-10T15:47:18;20.14;53.58
71206;SHT31;58935;54.498;18.544;2023-06-10T15:49:45;20.14;54.03
71206;SHT31;58935;54.498;18.544;2023-06-10T15:52:10;20.17;54.00
71206;SHT31;58935;54.498;18.544;2023-06-10T15:54:36;20.19;53.79
71206;SHT31;58935;54.498;18.544;2023-06-10T15:57:01;20.20;53.76